Time;durP1;ratioP1;P1;durP2;ratioP2;P2;SDS_P1;SDS_P2;PMS_P1;PMS_P2;Temp;Humidity;BMP_temperature;BMP_pressure;BME280_temperature;BME280_humidity;BME280_pressure;Samples;Min_cycle;Max_cycle;Signal;HPM_P1;HPM_P2
2023/12/26 00:00:57;;;;;;;6.75;4.85;;;;;;;2.86;100.00;97473.53;1225463;75;2922020;-70
2023/12/26 00:03:30;;;;;;;5.15;4.30;;;;;;;2.77;100.00;97464.13;1224017;75;2876520;-65
2023/12/26 00:06:03;;;;;;;4.70;3.75;;;;;;;2.89;100.00;97459.19;1224750;75;2922636;-69
2023/12/26 00:08:36;;;;;;;4.80;3.60;;;;;;;2.83;100.00;97460.88;1224527;75;2917423;-66
2023/12/26 00:11:09;;;;;;;4.70;3.90;;;;;;;2.63;100.00;97455.63;1224149;75;2918037;-71
2023/12/26 00:13:42;;;;;;;4.50;3.70;;;;;;;2.82;100.00;97448.56;1224168;75;2918275;-67
2023/12/26 00:16:18;;;;;;;5.45;3.95;;;;;;;2.60;100.00;97445.66;1224267;75;2924015;-70
2023/12/26 00:18:51;;;;;;;4.35;3.70;;;;;;;2.65;100.00;97445.16;1224145;75;2913074;-65
2023/12/26 00:21:24;;;;;;;5.95;4.35;;;;;;;2.51;100.00;97443.59;1224842;75;2926245;-66
2023/12/26 00:23:57;;;;;;;5.05;4.30;;;;;;;2.64;100.00;97435.53;1224393;75;2935037;-67
2023/12/26 00:26:30;;;;;;;4.75;4.05;;;;;;;2.65;100.00;97428.94;1224220;75;2928786;-67
2023/12/26 00:29:03;;;;;;;4.95;3.85;;;;;;;2.62;100.00;97427.09;1224757;75;2918145;-65
2023/12/26 00:31:42;;;;;;;3.60;3.25;;;;;;;2.72;100.00;97426.06;1224286;75;2941703;-69
2023/12/26 00:34:15;;;;;;;4.20;3.00;;;;;;;2.62;100.00;97427.88;1224846;75;2918724;-67
2023/12/26 00:36:48;;;;;;;4.15;3.35;;;;;;;2.54;100.00;97426.53;1224084;75;2924757;-66
2023/12/26 00:39:21;;;;;;;3.60;3.20;;;;;;;2.68;100.00;97420.72;1223839;75;2922546;-67
2023/12/26 00:41:54;;;;;;;5.20;4.00;;;;;;;2.34;100.00;97415.88;1224723;75;2922945;-67
2023/12/26 00:44:27;;;;;;;5.10;3.75;;;;;;;2.30;100.00;97420.59;1224441;75;2920282;-66
2023/12/26 00:47:02;;;;;;;5.45;4.60;;;;;;;2.21;100.00;97415.03;1224472;75;2925727;-66
2023/12/26 00:49:35;;;;;;;5.30;4.30;;;;;;;2.46;100.00;97417.84;1223764;75;2924761;-67
2023/12/26 00:52:09;;;;;;;5.10;3.95;;;;;;;2.52;100.00;97423.50;1224589;75;2921286;-66
2023/12/26 00:54:42;;;;;;;4.10;3.35;;;;;;;2.49;100.00;97427.81;1224166;75;2922077;-66
2023/12/26 00:57:14;;;;;;;4.75;3.40;;;;;;;2.51;100.00;97420.03;1225141;75;2921902;-65
2023/12/26 00:59:48;;;;;;;4.45;3.70;;;;;;;2.44;100.00;97427.56;1224888;75;2920747;-65
2023/12/26 01:02:24;;;;;;;5.85;4.75;;;;;;;2.33;100.00;97417.81;1223504;75;2946700;-69
2023/12/26 01:04:57;;;;;;;7.05;4.95;;;;;;;2.37;100.00;97417.72;1224167;75;2922909;-68
2023/12/26 01:07:30;;;;;;;5.30;4.30;;;;;;;2.27;100.00;97414.09;1224465;75;2927158;-66
2023/12/26 01:10:05;;;;;;;5.15;4.25;;;;;;;2.31;100.00;97419.44;1224836;75;2913357;-65
2023/12/26 01:12:38;;;;;;;5.30;4.10;;;;;;;2.19;100.00;97426.28;1223385;75;2931302;-66
2023/12/26 01:15:12;;;;;;;6.70;4.25;;;;;;;2.27;100.00;97424.16;1224670;75;2922336;-68
2023/12/26 01:17:47;;;;;;;5.20;3.85;;;;;;;2.07;100.00;97418.88;1224699;75;2924672;-68
2023/12/26 01:20:20;;;;;;;5.90;4.40;;;;;;;2.15;100.00;97422.91;1224359;75;2925903;-66
2023/12/26 01:22:53;;;;;;;6.95;4.30;;;;;;;2.11;100.00;97422.22;1225096;75;2918153;-66
2023/12/26 01:25:26;;;;;;;6.15;4.30;;;;;;;2.06;100.00;97417.34;1222620;75;2921131;-65
2023/12/26 01:27:59;;;;;;;4.85;4.00;;;;;;;1.96;100.00;97419.13;1224268;75;2918725;-67
2023/12/26 01:30:33;;;;;;;6.40;4.35;;;;;;;2.09;100.00;97409.19;1224595;75;2917140;-68
2023/12/26 01:33:08;;;;;;;5.30;3.75;;;;;;;1.98;100.00;97411.38;1224274;75;2924134;-68
2023/12/26 01:35:42;;;;;;;3.95;3.35;;;;;;;2.03;100.00;97413.56;1224926;75;2922697;-65
2023/12/26 01:38:15;;;;;;;3.35;2.80;;;;;;;1.97;100.00;97409.84;1224372;75;2921212;-66
2023/12/26 01:40:48;;;;;;;3.70;2.75;;;;;;;1.84;100.00;97417.88;1224505;75;2924917;-68
2023/12/26 01:43:21;;;;;;;3.55;2.70;;;;;;;1.79;100.00;97417.63;1225234;75;2916833;-66
2023/12/26 01:46:01;;;;;;;3.30;2.85;;;;;;;1.83;100.00;97415.63;1224322;75;2924309;-67
2023/12/26 01:48:36;;;;;;;3.00;2.40;;;;;;;1.87;100.00;97408.16;1224563;75;2926850;-67
2023/12/26 01:51:12;;;;;;;2.70;2.45;;;;;;;1.85;100.00;97403.22;1224206;75;2919010;-66
2023/12/26 01:53:45;;;;;;;3.30;2.35;;;;;;;1.80;100.00;97392.16;1224737;75;2916540;-66
2023/12/26 01:56:18;;;;;;;4.15;2.65;;;;;;;1.71;100.00;97398.16;1224381;75;2918156;-67
2023/12/26 01:58:53;;;;;;;2.90;2.30;;;;;;;1.76;100.00;97394.19;1225247;75;2917671;-64
2023/12/26 02:01:26;;;;;;;3.45;2.90;;;;;;;1.57;100.00;97385.75;1224545;75;2921279;-67
2023/12/26 02:04:02;;;;;;;3.85;2.95;;;;;;;1.55;100.00;97387.38;1223547;75;2926494;-67
2023/12/26 02:06:39;;;;;;;3.65;2.55;;;;;;;1.69;100.00;97387.78;1223994;75;2919526;-66
2023/12/26 02:09:13;;;;;;;2.95;2.65;;;;;;;1.59;100.00;97382.63;1224275;75;2916969;-69
2023/12/26 02:11:46;;;;;;;2.95;2.65;;;;;;;1.58;100.00;97375.72;1223479;83;2924861;-67
2023/12/26 02:14:19;;;;;;;3.40;2.50;;;;;;;1.62;100.00;97377.16;1222997;75;2954469;-70
2023/12/26 02:16:55;;;;;;;5.45;4.10;;;;;;;1.16;100.00;97376.28;1225384;75;2922760;-67
2023/12/26 02:19:32;;;;;;;4.75;3.55;;;;;;;1.33;100.00;97379.03;1224877;75;2919818;-67
2023/12/26 02:22:04;;;;;;;4.25;3.40;;;;;;;1.26;100.00;97366.44;1224216;75;2929077;-66
2023/12/26 02:24:42;;;;;;;4.25;3.45;;;;;;;1.36;100.00;97359.28;1224442;75;2920688;-68
2023/12/26 02:27:19;;;;;;;2.90;2.55;;;;;;;1.33;100.00;97360.91;1224593;75;2916140;-69
2023/12/26 02:29:55;;;;;;;4.05;3.40;;;;;;;1.16;100.00;97362.81;1224556;75;2916484;-66
2023/12/26 02:32:29;;;;;;;3.65;2.95;;;;;;;1.28;100.00;97359.47;1223584;75;2927145;-65
2023/12/26 02:35:05;;;;;;;2.75;2.35;;;;;;;1.41;100.00;97361.47;1224214;75;2926563;-67
2023/12/26 02:37:39;;;;;;;3.80;2.75;;;;;;;1.17;100.00;97360.88;1223995;75;2919326;-68
2023/12/26 02:40:16;;;;;;;3.60;2.95;;;;;;;1.25;100.00;97354.13;1224893;75;2920135;-69
2023/12/26 02:42:49;;;;;;;4.30;2.65;;;;;;;1.31;100.00;97347.06;1223869;75;2920081;-67
2023/12/26 02:45:22;;;;;;;3.60;2.45;;;;;;;1.30;100.00;97345.56;1224373;75;2933284;-67
2023/12/26 02:47:55;;;;;;;3.85;2.30;;;;;;;1.24;100.00;97345.28;1224306;75;2922991;-65
2023/12/26 02:50:28;;;;;;;2.35;2.10;;;;;;;1.25;100.00;97336.03;1224519;75;2922102;-67
2023/12/26 02:53:01;;;;;;;2.45;2.25;;;;;;;1.18;100.00;97346.97;1224862;75;2917782;-67
2023/12/26 02:55:36;;;;;;;2.75;2.15;;;;;;;1.14;100.00;97338.22;1224444;75;2915979;-67
2023/12/26 02:58:09;;;;;;;2.40;2.20;;;;;;;1.08;100.00;97337.19;1223991;75;2931071;-65
2023/12/26 03:00:42;;;;;;;3.85;2.70;;;;;;;1.10;100.00;97342.91;1223506;75;2927965;-68
2023/12/26 03:03:16;;;;;;;3.45;2.45;;;;;;;1.14;100.00;97349.00;1224539;75;2923107;-66
2023/12/26 03:05:48;;;;;;;3.25;2.50;;;;;;;1.11;100.00;97343.66;1224287;75;2916675;-67
2023/12/26 03:08:23;;;;;;;2.70;2.30;;;;;;;1.18;100.00;97338.91;1224743;75;2920759;-65
2023/12/26 03:10:59;;;;;;;2.60;1.90;;;;;;;1.18;100.00;97335.41;1224235;75;2938815;-67
2023/12/26 03:13:32;;;;;;;3.40;2.40;;;;;;;1.07;100.00;97341.06;1223893;75;2913476;-67
2023/12/26 03:16:05;;;;;;;2.30;2.10;;;;;;;1.09;100.00;97330.63;1224465;75;2921082;-68
2023/12/26 03:18:37;;;;;;;2.35;2.00;;;;;;;1.17;100.00;97331.97;1224340;75;2929265;-67
2023/12/26 03:21:10;;;;;;;2.30;1.90;;;;;;;1.08;100.00;97326.41;1224844;75;2922776;-66
2023/12/26 03:23:43;;;;;;;3.25;2.60;;;;;;;1.08;100.00;97331.78;1224972;75;2916843;-68
2023/12/26 03:26:19;;;;;;;4.10;2.90;;;;;;;1.00;100.00;97336.59;1224064;75;2940576;-65
2023/12/26 03:28:52;;;;;;;4.65;3.90;;;;;;;0.89;100.00;97336.09;1225160;75;2917379;-68
2023/12/26 03:31:25;;;;;;;5.45;3.65;;;;;;;1.02;100.00;97331.53;1225004;75;2929855;-69
2023/12/26 03:33:58;;;;;;;4.70;3.50;;;;;;;1.15;100.00;97328.94;1224489;75;2915114;-67
2023/12/26 03:36:31;;;;;;;4.05;3.40;;;;;;;1.01;100.00;97340.81;1223755;75;2915568;-70
2023/12/26 03:39:03;;;;;;;6.05;3.50;;;;;;;1.06;100.00;97339.56;1224656;75;2924890;-67
2023/12/26 03:41:40;;;;;;;4.30;3.20;;;;;;;1.15;100.00;97338.97;1224664;75;2922083;-67
2023/12/26 03:44:13;;;;;;;4.00;3.00;;;;;;;1.32;100.00;97334.34;1224882;75;2926640;-67
2023/12/26 03:46:46;;;;;;;2.20;2.00;;;;;;;1.29;100.00;97335.94;1224449;75;2924369;-65
2023/12/26 03:49:19;;;;;;;2.35;2.15;;;;;;;1.34;100.00;97348.91;1224174;75;2930218;-67
2023/12/26 03:51:52;;;;;;;2.50;2.30;;;;;;;1.24;100.00;97339.91;1225096;75;2932555;-65
2023/12/26 03:54:25;;;;;;;2.40;2.20;;;;;;;1.35;100.00;97336.19;1224131;75;2923773;-66
2023/12/26 03:57:00;;;;;;;3.25;2.00;;;;;;;1.33;100.00;97335.88;1224823;75;2921797;-63
2023/12/26 03:59:33;;;;;;;3.10;2.55;;;;;;;1.29;100.00;97335.94;1223811;75;2930579;-67
2023/12/26 04:02:07;;;;;;;3.25;2.25;;;;;;;1.34;100.00;97334.69;1224179;75;2928511;-69
2023/12/26 04:04:40;;;;;;;2.95;1.95;;;;;;;1.39;100.00;97332.22;1223572;75;2922666;-67
2023/12/26 04:07:13;;;;;;;2.85;2.20;;;;;;;1.38;100.00;97333.41;1224833;75;2922571;-67
2023/12/26 04:09:46;;;;;;;2.65;2.00;;;;;;;1.41;100.00;97331.81;1223227;75;2924470;-66
2023/12/26 04:12:21;;;;;;;2.35;1.80;;;;;;;1.38;100.00;97329.97;1224236;75;2921365;-66
2023/12/26 04:14:54;;;;;;;2.60;1.80;;;;;;;1.40;100.00;97317.56;1224595;75;2921887;-67
2023/12/26 04:17:27;;;;;;;2.50;2.00;;;;;;;1.31;100.00;97316.66;1224152;75;2922535;-67
2023/12/26 04:20:00;;;;;;;2.20;1.90;;;;;;;1.32;100.00;97318.91;1223975;75;2940165;-68
2023/12/26 04:22:33;;;;;;;2.35;1.80;;;;;;;1.35;100.00;97320.78;1224142;75;2924057;-66
2023/12/26 04:25:08;;;;;;;3.00;2.10;;;;;;;1.33;100.00;97317.00;1222772;75;2916458;-66
2023/12/26 04:27:43;;;;;;;3.10;2.30;;;;;;;1.21;100.00;97329.22;1224138;75;2908621;-68
2023/12/26 04:30:17;;;;;;;2.50;2.25;;;;;;;1.33;100.00;97323.13;1223876;75;2926660;-67
2023/12/26 04:32:50;;;;;;;3.65;2.30;;;;;;;1.32;100.00;97315.47;1223977;75;2932519;-70
2023/12/26 04:35:23;;;;;;;2.80;2.30;;;;;;;1.38;100.00;97311.84;1225123;75;2926585;-67
2023/12/26 04:37:56;;;;;;;3.75;2.65;;;;;;;1.42;100.00;97317.91;1224051;75;2919981;-67
2023/12/26 04:40:29;;;;;;;3.25;2.30;;;;;;;1.32;100.00;97316.22;1224720;75;2930250;-68
2023/12/26 04:43:08;;;;;;;3.40;2.35;;;;;;;1.35;100.00;97325.41;1225070;75;2925224;-67
2023/12/26 04:45:41;;;;;;;4.35;2.65;;;;;;;1.40;100.00;97328.38;1224483;75;2914894;-66
2023/12/26 04:48:14;;;;;;;6.00;4.20;;;;;;;1.23;100.00;97326.84;1224552;75;2942894;-66
2023/12/26 04:50:47;;;;;;;3.65;3.15;;;;;;;1.41;100.00;97329.13;1223569;75;2980747;-66
2023/12/26 04:53:20;;;;;;;3.90;2.75;;;;;;;1.41;100.00;97331.81;1224207;75;2919295;-65
2023/12/26 04:55:53;;;;;;;3.25;2.60;;;;;;;1.49;100.00;97323.13;1224693;75;2928330;-67
2023/12/26 04:58:29;;;;;;;3.05;2.70;;;;;;;1.48;100.00;97328.94;1223967;75;2928787;-69
2023/12/26 05:01:03;;;;;;;2.40;2.20;;;;;;;1.48;100.00;97331.66;1224291;75;2919629;-69
2023/12/26 05:03:36;;;;;;;2.25;2.05;;;;;;;1.56;100.00;97318.72;1223715;75;2925716;-67
2023/12/26 05:06:09;;;;;;;2.65;2.30;;;;;;;1.54;100.00;97321.09;1224474;75;2924327;-66
2023/12/26 05:08:44;;;;;;;3.25;2.20;;;;;;;1.53;100.00;97325.72;1224140;75;2924028;-67
2023/12/26 05:11:25;;;;;;;4.10;2.10;;;;;;;1.61;100.00;97332.50;1223677;75;2932151;-68
2023/12/26 05:14:01;;;;;;;2.95;2.40;;;;;;;1.63;100.00;97329.34;1223409;75;2925781;-67
2023/12/26 05:16:34;;;;;;;3.85;2.90;;;;;;;1.66;100.00;97334.66;1224247;75;2926466;-67
2023/12/26 05:19:07;;;;;;;3.45;2.65;;;;;;;1.69;100.00;97328.41;1223537;75;2926349;-65
2023/12/26 05:21:40;;;;;;;3.90;3.30;;;;;;;1.84;100.00;97322.66;1223778;75;2917560;-66
2023/12/26 05:24:13;;;;;;;3.30;2.75;;;;;;;1.79;100.00;97329.31;1224541;75;2922248;-67
2023/12/26 05:26:46;;;;;;;3.55;3.15;;;;;;;1.76;100.00;97340.22;1223744;75;2923712;-66
2023/12/26 05:29:22;;;;;;;3.70;2.85;;;;;;;1.89;100.00;97341.03;1223906;75;2929352;-67
2023/12/26 05:31:55;;;;;;;2.10;1.90;;;;;;;1.94;100.00;97345.91;1224469;75;2924637;-65
2023/12/26 05:34:28;;;;;;;2.65;2.10;;;;;;;2.00;100.00;97343.47;1223676;75;2915243;-66
2023/12/26 05:37:01;;;;;;;2.90;2.30;;;;;;;2.04;100.00;97336.78;1225563;75;2919599;-67
2023/12/26 05:39:34;;;;;;;3.80;3.30;;;;;;;1.69;100.00;97327.66;1224526;75;2933851;-65
2023/12/26 05:42:07;;;;;;;4.50;3.60;;;;;;;1.85;100.00;97334.97;1223405;75;2917829;-67
2023/12/26 05:44:43;;;;;;;4.75;3.60;;;;;;;1.84;100.00;97342.31;1223887;75;2925505;-67
2023/12/26 05:47:17;;;;;;;4.60;3.80;;;;;;;1.81;100.00;97345.09;1223837;75;2921331;-67
2023/12/26 05:49:50;;;;;;;6.40;4.70;;;;;;;1.90;100.00;97346.00;1223491;75;2943947;-68
2023/12/26 05:52:22;;;;;;;4.85;4.35;;;;;;;1.98;100.00;97341.19;1224457;75;2917566;-68
2023/12/26 05:54:56;;;;;;;4.85;4.20;;;;;;;1.79;100.00;97350.16;1223737;75;2915972;-66
2023/12/26 05:57:29;;;;;;;5.60;4.50;;;;;;;1.71;100.00;97346.91;1223128;75;2922858;-68
2023/12/26 06:00:04;;;;;;;6.05;4.90;;;;;;;1.66;100.00;97339.28;1223857;75;2923044;-65
2023/12/26 06:02:37;;;;;;;6.90;5.45;;;;;;;1.69;100.00;97341.91;1223863;75;2924697;-65
2023/12/26 06:05:11;;;;;;;5.30;4.45;;;;;;;1.83;100.00;97335.41;1213524;75;3650826;-65
2023/12/26 06:07:44;;;;;;;4.80;4.10;;;;;;;1.77;100.00;97341.72;1224717;75;2938554;-65
2023/12/26 06:10:17;;;;;;;4.75;3.80;;;;;;;1.94;100.00;97340.50;1223893;67;2923637;-66
2023/12/26 06:12:50;;;;;;;4.20;3.70;;;;;;;1.97;100.00;97344.31;1224034;75;2932743;-64
2023/12/26 06:15:25;;;;;;;5.75;4.40;;;;;;;1.83;100.00;97343.50;1224332;75;2920018;-66
2023/12/26 06:17:59;;;;;;;4.80;4.25;;;;;;;2.02;100.00;97339.16;1223946;75;2936983;-66
2023/12/26 06:20:32;;;;;;;4.35;3.55;;;;;;;2.03;100.00;97334.50;1224463;75;2928845;-67
2023/12/26 06:23:05;;;;;;;4.10;3.40;;;;;;;2.20;100.00;97340.63;1223744;75;2916015;-66
2023/12/26 06:25:38;;;;;;;4.05;3.40;;;;;;;2.15;100.00;97343.84;1223771;75;2928893;-67
2023/12/26 06:28:11;;;;;;;4.35;3.60;;;;;;;2.09;100.00;97341.69;1225053;75;2921172;-69
2023/12/26 06:30:48;;;;;;;4.05;3.45;;;;;;;2.16;100.00;97348.06;1223893;75;2919568;-66
2023/12/26 06:33:21;;;;;;;4.55;3.65;;;;;;;2.18;100.00;97351.09;1224975;75;2917119;-66
2023/12/26 06:35:54;;;;;;;3.80;3.40;;;;;;;2.28;100.00;97337.28;1224524;75;2923574;-66
2023/12/26 06:38:27;;;;;;;3.45;2.50;;;;;;;2.34;100.00;97338.28;1224109;75;2927423;-68
2023/12/26 06:41:01;;;;;;;4.45;3.10;;;;;;;2.01;100.00;97345.72;1224472;75;2921447;-67
2023/12/26 06:43:34;;;;;;;4.30;3.25;;;;;;;2.19;100.00;97341.78;1225011;75;2924757;-67
2023/12/26 06:46:10;;;;;;;3.75;3.10;;;;;;;2.23;100.00;97340.50;1224313;75;2923679;-67
2023/12/26 06:48:43;;;;;;;3.55;2.60;;;;;;;2.27;100.00;97337.72;1225035;75;2926641;-62
2023/12/26 06:51:16;;;;;;;2.80;2.10;;;;;;;2.25;100.00;97335.44;1223347;75;2941563;-66
2023/12/26 06:53:50;;;;;;;3.25;2.05;;;;;;;2.33;100.00;97347.59;1224172;75;2925392;-68
2023/12/26 06:56:23;;;;;;;2.90;2.00;;;;;;;2.33;100.00;97344.09;1224750;75;2924266;-67
2023/12/26 06:58:57;;;;;;;3.05;2.40;;;;;;;2.32;100.00;97350.72;1223913;75;2925768;-68
2023/12/26 07:01:30;;;;;;;4.25;3.40;;;;;;;2.49;100.00;97346.75;1223692;75;2921128;-67
2023/12/26 07:04:03;;;;;;;6.95;4.70;;;;;;;2.49;100.00;97359.50;1224821;75;2953192;-66
2023/12/26 07:06:36;;;;;;;10.25;6.95;;;;;;;2.44;100.00;97354.63;1223729;75;2943612;-66
2023/12/26 07:09:09;;;;;;;8.60;6.15;;;;;;;2.38;100.00;97351.69;1224664;75;2926196;-66
2023/12/26 07:11:42;;;;;;;6.75;4.80;;;;;;;2.56;100.00;97365.47;1224463;75;2928038;-66
2023/12/26 07:14:14;;;;;;;5.00;3.75;;;;;;;2.48;100.00;97363.41;1222825;75;2921856;-66
2023/12/26 07:16:50;;;;;;;5.00;3.70;;;;;;;2.39;100.00;97371.38;1223512;75;2922131;-68
2023/12/26 07:19:23;;;;;;;5.00;3.45;;;;;;;2.41;100.00;97375.16;1224316;75;2924052;-66
2023/12/26 07:21:56;;;;;;;4.10;3.35;;;;;;;2.42;100.00;97381.31;1223000;75;2921689;-65
2023/12/26 07:24:29;;;;;;;7.10;3.50;;;;;;;2.65;100.00;97385.72;1224015;75;2912937;-66
2023/12/26 07:27:02;;;;;;;5.45;4.20;;;;;;;2.77;100.00;97379.56;1224433;75;2927070;-69
2023/12/26 07:29:35;;;;;;;3.95;3.25;;;;;;;2.92;100.00;97388.78;1224649;75;2926894;-66
2023/12/26 07:32:11;;;;;;;4.10;3.20;;;;;;;2.94;100.00;97393.75;1224240;75;2924953;-64
2023/12/26 07:34:44;;;;;;;8.85;7.60;;;;;;;2.94;100.00;97397.22;1225011;75;2921084;-66
2023/12/26 07:37:17;;;;;;;7.50;6.50;;;;;;;2.89;100.00;97397.75;1223550;75;2922797;-67
2023/12/26 07:39:50;;;;;;;7.30;5.20;;;;;;;2.90;100.00;97407.38;1223712;75;2921611;-66
2023/12/26 07:42:23;;;;;;;7.10;5.60;;;;;;;2.74;100.00;97393.94;1224696;75;2916428;-65
2023/12/26 07:44:56;;;;;;;7.15;5.80;;;;;;;2.74;100.00;97408.22;1224257;75;2920421;-67
2023/12/26 07:47:31;;;;;;;7.00;5.90;;;;;;;2.73;100.00;97417.50;1224244;75;2923942;-65
2023/12/26 07:50:04;;;;;;;7.85;6.50;;;;;;;2.73;100.00;97425.59;1224843;75;2925792;-65
2023/12/26 07:52:37;;;;;;;11.85;7.85;;;;;;;2.69;100.00;97424.94;1224434;75;2926862;-66
2023/12/26 07:55:11;;;;;;;9.20;7.90;;;;;;;2.56;100.00;97435.72;1224891;75;2923790;-67
2023/12/26 07:57:44;;;;;;;10.15;8.95;;;;;;;2.69;100.00;97427.66;1224639;75;2916953;-64
2023/12/26 08:00:18;;;;;;;9.10;7.45;;;;;;;2.85;100.00;97432.25;1223864;75;2927849;-67
2023/12/26 08:02:54;;;;;;;7.15;6.45;;;;;;;2.87;100.00;97434.53;1223997;75;2918028;-68
2023/12/26 08:05:27;;;;;;;9.30;8.35;;;;;;;2.90;100.00;97431.69;1223261;75;2919589;-69
2023/12/26 08:07:59;;;;;;;12.15;9.95;;;;;;;2.74;100.00;97442.56;1214761;75;3369925;-66
2023/12/26 08:10:32;;;;;;;9.10;8.15;;;;;;;3.00;100.00;97446.09;1225033;75;2917967;-68
2023/12/26 08:13:05;;;;;;;11.45;10.25;;;;;;;2.84;100.00;97449.66;1224147;75;2919108;-65
2023/12/26 08:15:38;;;;;;;10.95;9.55;;;;;;;3.08;100.00;97443.94;1224232;75;2922692;-66
2023/12/26 08:18:14;;;;;;;9.40;8.40;;;;;;;3.44;100.00;97440.19;1224351;75;2918364;-65
2023/12/26 08:20:47;;;;;;;8.95;7.60;;;;;;;3.63;100.00;97452.75;1223926;75;2933336;-69
2023/12/26 08:23:20;;;;;;;11.85;9.40;;;;;;;3.81;100.00;97455.69;1224285;75;2891185;-66
2023/12/26 08:25:53;;;;;;;8.90;7.85;;;;;;;4.04;100.00;97451.88;1224806;75;2918625;-67
2023/12/26 08:28:26;;;;;;;6.90;6.20;;;;;;;4.16;100.00;97454.97;1223921;75;2922302;-67
2023/12/26 08:30:59;;;;;;;7.60;6.55;;;;;;;4.03;100.00;97447.63;1224494;75;2923831;-68
2023/12/26 08:33:35;;;;;;;6.35;5.30;;;;;;;4.40;100.00;97452.63;1224845;75;2923839;-65
2023/12/26 08:36:09;;;;;;;5.15;4.65;;;;;;;4.64;100.00;97445.59;1223819;75;2921449;-66
2023/12/26 08:38:43;;;;;;;6.45;5.25;;;;;;;4.70;100.00;97454.66;1224200;75;2925388;-66
2023/12/26 08:41:16;;;;;;;5.80;4.60;;;;;;;5.25;100.00;97467.84;1224284;75;2923800;-65
2023/12/26 08:43:49;;;;;;;6.90;5.75;;;;;;;5.44;100.00;97463.25;1224106;75;2921635;-66
2023/12/26 08:46:22;;;;;;;7.05;5.65;;;;;;;5.68;100.00;97462.75;1225379;75;2871286;-67
2023/12/26 08:48:57;;;;;;;6.85;5.60;;;;;;;5.94;100.00;97458.66;1224445;75;2932143;-67
2023/12/26 08:51:30;;;;;;;6.95;5.55;;;;;;;6.27;100.00;97460.81;1222967;75;2921664;-67
2023/12/26 08:54:03;;;;;;;7.50;6.65;;;;;;;6.09;100.00;97450.66;1223433;75;2926323;-69
2023/12/26 08:56:39;;;;;;;7.60;6.25;;;;;;;6.45;100.00;97457.34;1224092;75;2923512;-68
2023/12/26 08:59:12;;;;;;;7.45;5.50;;;;;;;6.61;100.00;97450.84;1222158;75;2935394;-69
2023/12/26 09:01:45;;;;;;;5.50;4.75;;;;;;;6.24;100.00;97452.81;1224421;75;2929814;-68
2023/12/26 09:04:26;;;;;;;;;;;;;;;6.49;100.00;97454.47;1199520;75;3403870;-67
2023/12/26 09:06:59;;;;;;;7.85;6.50;;;;;;;6.36;100.00;97462.78;1198475;75;3443921;-69
2023/12/26 09:09:35;;;;;;;18.70;16.90;;;;;;;6.09;100.00;97466.22;1170399;75;5349703;-68
2023/12/26 09:12:09;;;;;;;12.40;10.05;;;;;;;5.98;100.00;97469.34;1188195;75;5568704;-66
2023/12/26 09:14:42;;;;;;;11.60;8.50;;;;;;;6.03;100.00;97468.00;1224142;75;2922620;-68
2023/12/26 09:17:15;;;;;;;10.80;7.85;;;;;;;6.46;100.00;97471.72;1223913;75;2917423;-67
2023/12/26 09:19:50;;;;;;;9.05;7.25;;;;;;;6.46;100.00;97471.72;1223163;75;2924488;-69
2023/12/26 09:22:23;;;;;;;9.95;7.40;;;;;;;6.23;100.00;97479.25;1223607;75;2920296;-67
2023/12/26 09:24:56;;;;;;;10.55;7.05;;;;;;;6.15;100.00;97480.72;1223932;75;2926554;-66
2023/12/26 09:27:29;;;;;;;13.55;7.45;;;;;;;6.32;100.00;97489.34;1223014;75;2922293;-68
2023/12/26 09:30:02;;;;;;;9.35;6.85;;;;;;;6.35;100.00;97491.16;1223064;75;2920799;-67
2023/12/26 09:32:35;;;;;;;10.00;6.60;;;;;;;6.75;100.00;97485.59;1224323;75;2916443;-67
2023/12/26 09:35:11;;;;;;;10.15;6.75;;;;;;;7.08;100.00;97490.44;1222497;75;2929532;-66
2023/12/26 09:37:44;;;;;;;13.45;9.60;;;;;;;6.52;100.00;97499.81;1223179;75;2929888;-66
2023/12/26 09:40:18;;;;;;;13.15;10.05;;;;;;;7.07;100.00;97499.03;1223705;75;2922720;-66
2023/12/26 09:42:51;;;;;;;14.90;10.70;;;;;;;6.86;100.00;97501.50;1224268;75;2921469;-65
2023/12/26 09:45:26;;;;;;;14.95;11.10;;;;;;;6.75;100.00;97499.22;1224006;75;2924147;-66
2023/12/26 09:48:00;;;;;;;14.95;10.10;;;;;;;6.86;100.00;97498.00;1223692;75;2935642;-66
2023/12/26 09:50:36;;;;;;;13.30;9.85;;;;;;;6.70;100.00;97493.63;1224222;75;2924362;-67
2023/12/26 09:53:12;;;;;;;12.80;9.60;;;;;;;7.38;100.00;97479.78;1223471;75;2928593;-66
2023/12/26 09:55:45;;;;;;;9.65;8.00;;;;;;;7.64;100.00;97491.03;1223822;75;2922888;-67
2023/12/26 09:58:19;;;;;;;7.30;6.00;;;;;;;7.90;100.00;97488.66;1222925;75;2925526;-69
2023/12/26 10:00:53;;;;;;;9.70;7.00;;;;;;;7.71;100.00;97481.78;1223679;75;2923765;-69
2023/12/26 10:03:27;;;;;;;7.50;6.10;;;;;;;8.32;100.00;97480.41;1223113;75;2921962;-66
2023/12/26 10:06:02;;;;;;;9.10;6.85;;;;;;;7.94;100.00;97474.84;1223165;75;2926581;-66
2023/12/26 10:08:35;;;;;;;8.90;7.30;;;;;;;8.58;100.00;97471.75;1223422;75;2917243;-66
2023/12/26 10:11:08;;;;;;;11.00;7.40;;;;;;;8.93;100.00;97482.84;1222726;75;2921976;-66
2023/12/26 10:13:50;;;;;;;11.05;8.70;;;;;;;8.48;100.00;97482.00;1224430;75;2914352;-66
2023/12/26 10:16:24;;;;;;;14.10;9.55;;;;;;;8.20;100.00;97478.69;1223869;75;2918264;-68
2023/12/26 10:18:57;;;;;;;11.35;9.95;;;;;;;8.24;100.00;97484.69;1224351;75;2920028;-66
2023/12/26 10:21:33;;;;;;;12.45;9.35;;;;;;;8.31;100.00;97478.88;1222888;75;2927843;-67
2023/12/26 10:24:06;;;;;;;12.85;8.70;;;;;;;8.71;100.00;97468.81;1223546;75;2942081;-66
2023/12/26 10:26:39;;;;;;;11.20;8.10;;;;;;;9.24;98.56;97478.94;1223084;75;2925365;-66
2023/12/26 10:29:15;;;;;;;10.05;7.05;;;;;;;10.09;94.79;97475.50;1224397;75;2946216;-69
2023/12/26 10:31:49;;;;;;;13.10;9.55;;;;;;;8.58;100.00;97485.41;1224528;75;2914878;-65
2023/12/26 10:34:23;;;;;;;12.80;9.45;;;;;;;9.95;90.67;97471.56;1223085;75;2925930;-67
2023/12/26 10:36:59;;;;;;;9.85;7.75;;;;;;;10.20;87.14;97481.13;1224235;75;2926893;-68
2023/12/26 10:39:32;;;;;;;10.90;7.80;;;;;;;10.65;84.27;97459.81;1223860;75;2929531;-66
2023/12/26 10:42:07;;;;;;;7.30;5.70;;;;;;;10.65;83.23;97475.47;1224540;75;2930715;-68
2023/12/26 10:45:00;;;;;;;7.60;5.55;;;;;;;10.66;80.24;97460.56;1223339;75;2944177;-68
2023/12/26 10:47:33;;;;;;;8.80;6.00;;;;;;;10.69;80.14;97475.28;1223894;75;2923543;-66
2023/12/26 10:50:11;;;;;;;10.90;7.50;;;;;;;10.16;86.98;97474.34;1223660;75;2919371;-65
2023/12/26 10:53:10;;;;;;;9.10;6.30;;;;;;;13.00;72.30;97464.59;1224839;75;2921557;-68
2023/12/26 10:55:48;;;;;;;11.85;8.35;;;;;;;12.65;68.93;97450.53;1224447;75;2920740;-67
2023/12/26 10:58:23;;;;;;;8.15;6.60;;;;;;;13.30;68.67;97455.94;1223936;75;2921814;-66
2023/12/26 11:00:55;;;;;;;9.85;6.90;;;;;;;15.77;59.09;97464.47;1223699;75;2937555;-67
2023/12/26 13:54:13;;;;;;;3.15;1.40;;;;;;;14.86;57.09;97455.31;1223026;75;2926563;-66
2023/12/26 13:57:30;;;;;;;3.85;2.00;;;;;;;13.82;59.80;97469.16;1223682;75;2919070;-65
2023/12/26 14:00:48;;;;;;;5.40;2.65;;;;;;;13.89;59.90;97473.41;1224988;75;2915662;-68
2023/12/26 14:04:06;;;;;;;2.15;1.50;;;;;;;14.25;60.02;97490.09;1223915;75;2917515;-69
2023/12/26 14:07:23;;;;;;;3.65;1.90;;;;;;;14.10;60.72;97497.91;1223485;75;2936098;-65
2023/12/26 14:10:41;;;;;;;1.40;1.10;;;;;;;13.96;61.38;97488.66;1223228;75;2925194;-68
2023/12/26 14:13:59;;;;;;;2.20;1.20;;;;;;;13.54;63.41;97498.69;1224565;75;2917378;-66
2023/12/26 14:17:16;;;;;;;1.90;1.30;;;;;;;13.55;64.84;97508.44;1223428;75;2915313;-69
2023/12/26 14:20:34;;;;;;;1.50;1.00;;;;;;;13.53;66.08;97508.94;1223250;75;2918649;-69
2023/12/26 14:23:52;;;;;;;1.30;0.90;;;;;;;13.51;66.34;97514.19;1223459;75;2921318;-67
2023/12/26 14:27:09;;;;;;;2.55;1.55;;;;;;;13.10;67.18;97528.31;1225073;75;2912929;-66
2023/12/26 14:30:27;;;;;;;1.50;1.10;;;;;;;12.92;67.99;97524.03;1224002;75;2912876;-67
2023/12/26 14:33:45;;;;;;;1.50;1.30;;;;;;;12.93;68.70;97528.28;1223420;75;2940947;-70
2023/12/26 14:37:03;;;;;;;2.25;1.60;;;;;;;12.81;68.83;97539.72;1223679;75;2927562;-66
2023/12/26 14:40:20;;;;;;;2.85;1.50;;;;;;;12.78;69.60;97547.72;1223545;75;2929467;-65
2023/12/26 14:43:38;;;;;;;1.95;1.35;;;;;;;12.72;70.46;97548.91;1225792;75;2916727;-69
2023/12/26 14:46:56;;;;;;;2.85;1.70;;;;;;;12.56;70.17;97548.34;1223690;75;2919930;-67
2023/12/26 14:50:13;;;;;;;2.15;1.20;;;;;;;12.26;71.52;97561.66;1223840;75;2917436;-67